createdAt,value
2022-12-23T00:05:05.616Z,9.5
2022-12-23T00:07:05.323Z,9.5
2022-12-23T00:09:05.011Z,9.5
2022-12-23T00:13:07.805Z,9.5
2022-12-23T00:15:07.446Z,9.5
2022-12-23T00:17:21.640Z,9.6
2022-12-23T00:19:06.818Z,9.5
2022-12-23T00:21:08.831Z,9.5
2022-12-23T00:23:06.186Z,9.5
2022-12-23T00:25:05.870Z,9.5
2022-12-23T00:27:08.949Z,9.6
2022-12-23T00:29:08.653Z,9.4
2022-12-23T00:31:08.346Z,9.4
2022-12-23T00:33:08.006Z,9.6
2022-12-23T00:35:07.677Z,9.5
2022-12-23T00:37:07.364Z,9.4
2022-12-23T00:39:07.090Z,9.4
2022-12-23T00:41:10.116Z,9.5
2022-12-23T00:43:09.823Z,9.5
2022-12-23T00:45:09.471Z,9.5
2022-12-23T00:51:08.571Z,9.6
2022-12-23T00:57:10.984Z,9.6
2022-12-23T01:00:12.194Z,9.6
2022-12-23T01:02:12.001Z,9.5
2022-12-23T01:04:11.548Z,9.6
2022-12-23T01:10:14.004Z,9.6
2022-12-23T01:12:13.706Z,9.5
2022-12-23T01:14:13.364Z,9.6
2022-12-23T01:16:17.265Z,9.6
2022-12-23T01:20:12.390Z,9.6
2022-12-23T01:22:15.473Z,9.5
2022-12-23T01:24:15.174Z,9.6
2022-12-23T01:30:14.213Z,9.6
2022-12-23T01:32:13.993Z,9.5
2022-12-23T01:34:13.571Z,9.5
2022-12-23T01:36:16.696Z,9.5
2022-12-23T01:38:16.356Z,9.5
2022-12-23T01:40:16.011Z,9.6
2022-12-23T01:42:15.726Z,9.4
2022-12-23T01:44:16.252Z,9.4
2022-12-23T01:46:15.978Z,9.5
2022-12-23T01:48:15.595Z,9.5
2022-12-23T01:50:18.672Z,9.5
2022-12-23T01:52:18.351Z,9.4
2022-12-23T01:54:18.081Z,9.5
2022-12-23T01:56:33.687Z,9.3
2022-12-23T01:58:33.204Z,9.4
2022-12-23T02:00:32.896Z,9.3
2022-12-23T02:02:36.100Z,9.3
2022-12-23T02:04:35.657Z,9.4
2022-12-23T02:06:35.365Z,9.2
2022-12-23T02:10:34.719Z,9.2
2022-12-23T02:12:34.528Z,9.3
2022-12-23T02:14:34.089Z,9.2
2022-12-23T02:16:37.163Z,9.2
2022-12-23T02:18:36.818Z,9.2
2022-12-23T02:20:36.542Z,9.2
2022-12-23T02:22:36.246Z,9.2
2022-12-23T02:24:35.886Z,9.1
2022-12-23T02:26:35.591Z,9.2
2022-12-23T02:28:35.307Z,9.2
2022-12-23T02:30:38.414Z,9.2
2022-12-23T02:32:38.102Z,9.1
2022-12-23T02:34:37.752Z,9
2022-12-23T02:36:37.462Z,9.1
2022-12-23T02:38:37.167Z,9.1
2022-12-23T02:40:36.871Z,9
2022-12-23T02:42:36.536Z,9
2022-12-23T02:44:39.614Z,9
2022-12-23T02:46:39.336Z,9
2022-12-23T02:48:39.008Z,9
2022-12-23T02:49:40.528Z,8.9
2022-12-23T02:51:40.238Z,9
2022-12-23T02:53:39.898Z,9
2022-12-23T02:55:39.592Z,9
2022-12-23T03:03:41.878Z,8.9
2022-12-23T03:05:41.439Z,8.9
2022-12-23T03:07:41.107Z,8.9
2022-12-23T03:15:43.446Z,8.9
2022-12-23T03:17:42.998Z,8.8
2022-12-23T03:19:42.680Z,8.7
2022-12-23T03:21:42.361Z,8.8
2022-12-23T03:23:42.063Z,8.7
2022-12-23T03:25:45.143Z,8.7
2022-12-23T03:27:44.859Z,8.6
2022-12-23T03:29:44.517Z,8.7
2022-12-23T03:31:44.420Z,8.7
2022-12-23T03:39:46.445Z,8.5
2022-12-23T03:41:46.140Z,8.5
2022-12-23T03:45:10.671Z,8.6
2022-12-23T03:46:47.184Z,8.6
2022-12-23T03:48:46.791Z,8.6
2022-12-23T03:50:46.502Z,8.5
2022-12-23T03:52:49.582Z,8.6
2022-12-23T03:54:49.403Z,8.6
2022-12-23T03:56:49.008Z,8.5
2022-12-23T03:58:48.733Z,8.6
2022-12-23T04:00:48.392Z,8.5
2022-12-23T04:02:48.160Z,8.5
2022-12-23T04:04:47.860Z,8.6
2022-12-23T04:06:50.942Z,8.6
2022-12-23T04:08:50.634Z,8.5
2022-12-23T04:10:50.353Z,8.6
2022-12-23T04:12:50.044Z,8.6
2022-12-23T04:14:49.760Z,8.5
2022-12-23T04:16:49.469Z,8.6
2022-12-23T04:18:49.157Z,8.5
2022-12-23T04:30:52.305Z,8.5
2022-12-23T04:32:52.001Z,8.5
2022-12-23T04:34:55.103Z,8.6
2022-12-23T04:36:54.789Z,8.5
2022-12-23T04:39:56.064Z,8.6
2022-12-23T04:41:55.788Z,8.6
2022-12-23T04:43:55.534Z,8.5
2022-12-23T04:45:55.194Z,8.6
2022-12-23T04:47:58.292Z,8.5
2022-12-23T04:49:57.980Z,8.6
2022-12-23T04:51:57.684Z,8.5
2022-12-23T04:53:57.372Z,8.6
2022-12-23T04:57:56.783Z,8.4
2022-12-23T04:59:56.509Z,8.5
2022-12-23T05:01:59.876Z,8.5
2022-12-23T05:03:59.293Z,8.5
2022-12-23T05:07:58.673Z,8.5
2022-12-23T05:09:58.361Z,8.4
2022-12-23T05:11:58.108Z,8.4
2022-12-23T05:13:57.797Z,8.4
2022-12-23T05:16:01.016Z,8.4
2022-12-23T05:18:00.567Z,8.4
2022-12-23T05:20:00.303Z,8.3
2022-12-23T05:22:00.004Z,8.3
2022-12-23T05:23:59.665Z,8.3
2022-12-23T05:25:59.336Z,8.3
2022-12-23T05:27:59.087Z,8.3
2022-12-23T05:30:02.154Z,8.2
2022-12-23T05:32:01.985Z,8.2
2022-12-23T05:34:06.375Z,8.2
2022-12-23T05:36:23.403Z,8.1
2022-12-23T05:38:23.012Z,8.1
2022-12-23T05:40:23.879Z,8.2
2022-12-23T05:42:25.816Z,8.1
2022-12-23T05:44:25.516Z,8.2
2022-12-23T05:46:27.081Z,8.1
2022-12-23T05:48:24.908Z,8.1
2022-12-23T05:50:24.613Z,8.1
2022-12-23T05:52:24.302Z,8.2
2022-12-23T05:56:27.130Z,8.1
2022-12-23T05:58:26.831Z,8
2022-12-23T06:00:26.590Z,8.1
2022-12-23T06:02:26.395Z,8
2022-12-23T06:04:26.094Z,8.2
2022-12-23T06:06:25.676Z,8.2
2022-12-23T06:08:25.396Z,8.1
2022-12-23T06:10:28.509Z,8
2022-12-23T06:12:28.217Z,8.1
2022-12-23T06:14:29.405Z,8.1
2022-12-23T06:18:27.338Z,8
2022-12-23T06:20:27.054Z,8
2022-12-23T06:22:26.722Z,7.9
2022-12-23T06:26:29.559Z,8
2022-12-23T06:28:29.254Z,8.1
2022-12-23T06:29:30.812Z,8
2022-12-23T06:31:30.635Z,8
2022-12-23T06:35:29.959Z,8
2022-12-23T06:37:33.085Z,8
2022-12-23T06:39:32.747Z,7.9
2022-12-23T06:41:32.433Z,8
2022-12-23T06:43:32.168Z,7.9
2022-12-23T06:45:31.925Z,8.1
2022-12-23T06:47:31.707Z,8
2022-12-23T06:49:31.297Z,8
2022-12-23T06:51:34.409Z,7.9
2022-12-23T06:53:34.111Z,7.9
2022-12-23T06:55:33.831Z,7.9
2022-12-23T06:57:33.533Z,8
2022-12-23T06:59:33.209Z,8
2022-12-23T07:01:33.159Z,7.9
2022-12-23T07:03:32.709Z,8
2022-12-23T07:05:37.549Z,8
2022-12-23T07:07:35.471Z,7.9
2022-12-23T07:13:34.597Z,7.8
2022-12-23T07:15:34.304Z,8
2022-12-23T07:21:36.785Z,7.9
2022-12-23T07:24:38.049Z,7.8
2022-12-23T07:26:37.779Z,7.8
2022-12-23T07:30:37.151Z,7.9
2022-12-23T07:34:39.978Z,7.8
2022-12-23T07:36:39.685Z,7.9
2022-12-23T07:38:39.389Z,8
2022-12-23T07:40:39.074Z,7.8
2022-12-23T07:42:45.591Z,7.9
2022-12-23T07:44:38.505Z,7.9
2022-12-23T07:46:41.631Z,7.9
2022-12-23T07:48:41.302Z,7.9
2022-12-23T07:50:41.029Z,7.9
2022-12-23T07:52:40.720Z,7.8
2022-12-23T08:00:42.978Z,7.9
2022-12-23T08:02:42.809Z,7.9
2022-12-23T08:04:46.017Z,7.9
2022-12-23T08:06:42.075Z,7.9
2022-12-23T08:08:41.761Z,7.9
2022-12-23T08:10:47.785Z,7.9
2022-12-23T08:12:41.201Z,7.9
2022-12-23T08:14:44.313Z,8
2022-12-23T08:16:44.529Z,7.9
2022-12-23T08:18:43.764Z,7.9
2022-12-23T08:19:45.302Z,7.9
2022-12-23T08:23:44.688Z,7.9
2022-12-23T08:25:44.400Z,7.9
2022-12-23T08:27:47.538Z,7.9
2022-12-23T08:29:47.249Z,7.9
2022-12-23T08:33:46.646Z,8
2022-12-23T08:35:46.370Z,8
2022-12-23T08:37:46.104Z,7.9
2022-12-23T08:39:45.814Z,8
2022-12-23T08:41:48.907Z,8
2022-12-23T08:43:48.591Z,8
2022-12-23T08:45:48.314Z,8
2022-12-23T08:49:47.751Z,8
2022-12-23T08:51:47.462Z,8
2022-12-23T08:55:50.282Z,8
2022-12-23T08:57:50.016Z,7.9
2022-12-23T08:59:49.725Z,8
2022-12-23T09:01:49.645Z,8
2022-12-23T09:03:49.252Z,8
2022-12-23T09:05:48.845Z,8
2022-12-23T09:07:48.570Z,8
2022-12-23T09:09:51.691Z,8
2022-12-23T09:11:51.377Z,8
2022-12-23T09:13:51.100Z,8.1
2022-12-23T09:16:06.896Z,8.1
2022-12-23T09:18:06.571Z,8.1
2022-12-23T09:20:06.248Z,8.1
2022-12-23T09:22:09.354Z,8.1
2022-12-23T09:24:09.093Z,8.1
2022-12-23T09:26:08.796Z,8.2
2022-12-23T09:28:08.506Z,8.1
2022-12-23T09:32:07.920Z,8.2
2022-12-23T09:44:09.581Z,8.3
2022-12-23T09:46:09.361Z,8.3
2022-12-23T09:48:09.006Z,8.3
2022-12-23T09:50:12.100Z,8.3
2022-12-23T09:52:11.801Z,8.3
2022-12-23T09:54:16.578Z,8.3
2022-12-23T09:56:11.224Z,8.3
2022-12-23T09:58:10.909Z,8.3
2022-12-23T10:00:10.663Z,8.3
2022-12-23T10:02:10.432Z,8.3
2022-12-23T10:04:13.497Z,8.3
2022-12-23T10:06:13.136Z,8.3
2022-12-23T10:08:12.828Z,8.3
2022-12-23T10:11:14.089Z,8.2
2022-12-23T10:13:15.358Z,8.2
2022-12-23T10:15:15.024Z,8.3
2022-12-23T10:17:18.090Z,8.3
2022-12-23T10:19:17.820Z,8.3
2022-12-23T10:21:17.547Z,8.3
2022-12-23T10:23:17.268Z,8.3
2022-12-23T10:25:17.024Z,8.3
2022-12-23T10:27:16.717Z,8.3
2022-12-23T10:29:19.038Z,8.3
2022-12-23T10:33:19.344Z,8.3
2022-12-23T10:35:18.939Z,8.4
2022-12-23T10:37:18.623Z,8.4
2022-12-23T10:39:18.362Z,8.4
2022-12-23T10:41:18.070Z,8.4
2022-12-23T10:43:17.782Z,8.4
2022-12-23T10:45:20.874Z,8.4
2022-12-23T10:51:20.046Z,8.4
2022-12-23T10:57:19.145Z,8.5
2022-12-23T11:03:21.834Z,8.5
2022-12-23T11:04:23.230Z,8.5
2022-12-23T11:12:25.422Z,8.5
2022-12-23T11:14:25.147Z,8.5
2022-12-23T11:16:24.900Z,8.6
2022-12-23T11:18:24.582Z,8.6
2022-12-23T11:20:24.277Z,8.6
2022-12-23T11:22:24.052Z,8.6
2022-12-23T11:24:23.711Z,8.6
2022-12-23T11:26:26.847Z,8.6
2022-12-23T11:28:26.492Z,8.6
2022-12-23T11:30:26.205Z,8.6
2022-12-23T11:32:25.867Z,8.6
2022-12-23T11:34:25.587Z,8.6
2022-12-23T11:36:25.273Z,8.6
2022-12-23T11:38:24.982Z,8.6
2022-12-23T11:40:28.080Z,8.6
2022-12-23T11:42:27.812Z,8.6
2022-12-23T11:44:27.545Z,8.6
2022-12-23T11:46:27.324Z,8.6
2022-12-23T11:50:26.611Z,8.7
2022-12-23T11:52:26.340Z,8.6
2022-12-23T11:54:29.453Z,8.6
2022-12-23T11:56:29.244Z,8.6
2022-12-23T11:59:30.420Z,8.7
2022-12-23T12:01:30.129Z,8.7
2022-12-23T12:03:29.959Z,8.7
2022-12-23T12:05:29.540Z,8.6
2022-12-23T12:07:32.622Z,8.6
2022-12-23T12:09:32.372Z,8.6
2022-12-23T12:11:32.039Z,8.6
2022-12-23T12:15:31.410Z,8.6
2022-12-23T12:21:34.016Z,8.7
2022-12-23T12:23:33.734Z,8.7
2022-12-23T12:25:37.894Z,8.7
2022-12-23T12:27:33.127Z,8.7
2022-12-23T12:29:32.851Z,8.7
2022-12-23T12:31:32.538Z,8.7
2022-12-23T12:33:32.231Z,8.7
2022-12-23T12:35:35.332Z,8.7
2022-12-23T12:37:35.043Z,8.7
2022-12-23T12:39:34.757Z,8.7
2022-12-23T12:41:34.454Z,8.7
2022-12-23T12:43:34.135Z,8.7
2022-12-23T12:45:33.891Z,8.7
2022-12-23T12:47:53.527Z,8.8
2022-12-23T12:49:36.658Z,8.8
2022-12-23T12:51:36.365Z,8.8
2022-12-23T12:53:36.077Z,8.8
2022-12-23T12:55:57.966Z,8.7
2022-12-23T12:57:57.724Z,8.8
2022-12-23T13:00:03.541Z,8.7
2022-12-23T13:02:00.636Z,8.8
2022-12-23T13:04:00.188Z,8.7
2022-12-23T13:05:59.924Z,8.8
2022-12-23T13:07:59.612Z,8.8
2022-12-23T13:09:59.339Z,8.8
2022-12-23T13:11:59.015Z,8.8
2022-12-23T13:13:58.705Z,8.8
2022-12-23T13:20:01.241Z,8.8
2022-12-23T13:22:00.945Z,8.8
2022-12-23T13:24:04.076Z,8.8
2022-12-23T13:28:00.665Z,8.8
2022-12-23T13:30:03.737Z,8.8
2022-12-23T13:32:03.441Z,8.8
2022-12-23T13:38:02.557Z,8.8
2022-12-23T13:40:02.275Z,8.9
2022-12-23T13:42:05.814Z,8.9
2022-12-23T13:44:05.094Z,8.9
2022-12-23T13:46:04.843Z,8.9
2022-12-23T13:48:05.457Z,8.9
2022-12-23T13:49:06.012Z,8.9
2022-12-23T13:51:05.724Z,8.9
2022-12-23T13:53:05.442Z,8.9
2022-12-23T13:55:05.139Z,8.9
2022-12-23T13:57:08.249Z,8.9
2022-12-23T14:01:07.701Z,8.8
2022-12-23T14:03:07.479Z,8.9
2022-12-23T14:05:11.719Z,8.8
2022-12-23T14:07:06.793Z,8.8
2022-12-23T14:09:06.505Z,8.8
2022-12-23T14:11:09.609Z,8.8
2022-12-23T14:13:09.319Z,8.8
2022-12-23T14:15:09.016Z,8.8
2022-12-23T14:17:08.697Z,8.8
2022-12-23T14:19:08.399Z,8.8
2022-12-23T14:23:07.833Z,8.8
2022-12-23T14:25:10.929Z,8.8
2022-12-23T14:27:10.638Z,8.8
2022-12-23T14:29:10.470Z,8.8
2022-12-23T14:31:10.141Z,8.7
2022-12-23T14:33:09.779Z,8.8
2022-12-23T14:35:09.450Z,8.8
2022-12-23T14:37:09.236Z,8.7
2022-12-23T14:39:12.358Z,8.7
2022-12-23T14:41:12.091Z,8.7
2022-12-23T14:43:11.813Z,8.8
2022-12-23T14:44:13.319Z,8.7
2022-12-23T14:46:13.103Z,8.7
2022-12-23T14:48:12.774Z,8.8
2022-12-23T14:52:15.603Z,8.8
2022-12-23T14:58:14.698Z,8.8
2022-12-23T15:00:14.411Z,8.8
2022-12-23T15:02:14.125Z,8.8
2022-12-23T15:06:16.932Z,8.8
2022-12-23T15:08:16.602Z,8.8
2022-12-23T15:10:16.319Z,8.8
2022-12-23T15:12:16.029Z,8.8
2022-12-23T15:14:15.736Z,8.8
2022-12-23T15:16:15.479Z,8.8
2022-12-23T15:18:15.169Z,8.7
2022-12-23T15:20:18.272Z,8.7
2022-12-23T15:22:25.247Z,8.7
2022-12-23T15:26:17.405Z,8.7
2022-12-23T15:28:17.100Z,8.7
2022-12-23T15:30:16.813Z,8.7
2022-12-23T15:32:16.485Z,8.7
2022-12-23T15:34:19.605Z,8.7
2022-12-23T15:36:19.559Z,8.7
2022-12-23T15:38:19.009Z,8.7
2022-12-23T15:39:20.570Z,8.8
2022-12-23T15:41:20.282Z,8.7
2022-12-23T15:43:19.976Z,8.7
2022-12-23T15:45:19.689Z,8.7
2022-12-23T15:47:22.871Z,8.6
2022-12-23T15:49:22.514Z,8.6
2022-12-23T15:51:50.114Z,8.8
2022-12-23T15:55:21.650Z,8.7
2022-12-23T15:57:21.287Z,8.7
2022-12-23T16:03:25.395Z,8.7
2022-12-23T16:05:25.026Z,8.7
2022-12-23T16:07:24.692Z,8.7
2022-12-23T16:09:24.363Z,8.7
2022-12-23T16:11:24.055Z,8.7
2022-12-23T16:13:23.744Z,8.6
2022-12-23T16:15:26.816Z,8.6
2022-12-23T16:17:26.527Z,8.6
2022-12-23T16:19:26.153Z,8.6
2022-12-23T16:21:25.852Z,8.7
2022-12-23T16:23:25.531Z,8.7
2022-12-23T16:25:25.231Z,8.7
2022-12-23T16:27:24.920Z,8.7
2022-12-23T16:29:28.034Z,8.6
2022-12-23T16:31:27.748Z,8.7
2022-12-23T16:33:27.382Z,8.7
2022-12-23T16:35:49.153Z,8.8
2022-12-23T16:37:51.288Z,8.7
2022-12-23T16:39:48.491Z,8.8
2022-12-23T16:41:51.602Z,8.7
2022-12-23T16:43:52.711Z,8.7
2022-12-23T16:45:51.019Z,8.7
2022-12-23T16:47:50.652Z,8.7
2022-12-23T16:59:52.190Z,8.7
2022-12-23T17:03:51.594Z,8.6
2022-12-23T17:05:51.256Z,8.7
2022-12-23T17:07:50.911Z,8.7
2022-12-23T17:09:54.033Z,8.6
2022-12-23T17:11:53.776Z,8.7
2022-12-23T17:13:57.904Z,8.6
2022-12-23T17:15:53.116Z,8.7
2022-12-23T17:17:52.802Z,8.6
2022-12-23T17:19:52.519Z,8.7
2022-12-23T17:21:52.192Z,8.7
2022-12-23T17:23:55.315Z,8.6
2022-12-23T17:25:55.004Z,8.7
2022-12-23T17:27:54.716Z,8.8
2022-12-23T17:28:56.237Z,8.7
2022-12-23T17:30:55.965Z,8.7
2022-12-23T17:32:55.648Z,8.7
2022-12-23T17:34:55.352Z,8.7
2022-12-23T17:36:58.476Z,8.8
2022-12-23T17:38:58.159Z,8.6
2022-12-23T17:40:57.833Z,8.7
2022-12-23T17:42:57.520Z,8.7
2022-12-23T17:44:57.234Z,8.8
2022-12-23T17:46:56.954Z,8.7
2022-12-23T17:48:56.621Z,8.8
2022-12-23T17:50:59.732Z,8.7
2022-12-23T17:52:59.443Z,8.6
2022-12-23T17:54:59.158Z,8.6
2022-12-23T17:56:58.873Z,8.7
2022-12-23T17:58:58.570Z,8.6
2022-12-23T18:00:58.286Z,8.7
2022-12-23T18:02:58.072Z,8.8
2022-12-23T18:05:01.039Z,8.6
2022-12-23T18:07:00.776Z,8.7
2022-12-23T18:09:00.469Z,8.6
2022-12-23T18:11:00.197Z,8.7
2022-12-23T18:12:59.891Z,8.6
2022-12-23T18:14:59.583Z,8.6
2022-12-23T18:16:59.359Z,8.7
2022-12-23T18:19:02.386Z,8.6
2022-12-23T18:23:01.925Z,8.6
2022-12-23T18:24:03.302Z,8.7
2022-12-23T18:26:03.035Z,8.6
2022-12-23T18:28:02.725Z,8.7
2022-12-23T18:30:02.405Z,8.7
2022-12-23T18:32:05.541Z,8.7
2022-12-23T18:34:05.233Z,8.8
2022-12-23T18:36:05.022Z,8.8
2022-12-23T18:38:04.651Z,8.7
2022-12-23T18:40:04.321Z,8.8
2022-12-23T18:42:04.080Z,8.8
2022-12-23T18:58:05.078Z,9.5
2022-12-23T19:10:06.602Z,10
2022-12-23T19:18:08.744Z,10
2022-12-23T19:19:10.252Z,10
2022-12-23T19:21:09.987Z,10.1
2022-12-23T19:23:09.615Z,10.1
2022-12-23T19:25:09.329Z,10.1
2022-12-23T19:27:12.412Z,10.2
2022-12-23T19:29:12.112Z,10.1
2022-12-23T19:31:11.848Z,10.3
2022-12-23T19:33:11.422Z,10.2
2022-12-23T19:35:11.099Z,10.2
2022-12-23T19:37:10.778Z,10.1
2022-12-23T19:39:10.484Z,10.2
2022-12-23T19:43:13.231Z,10.2
2022-12-23T19:45:12.936Z,10.2
2022-12-23T19:47:12.582Z,10.2
2022-12-23T19:49:19.216Z,10.2
2022-12-23T19:51:11.933Z,10.3
2022-12-23T19:53:11.581Z,10.3
2022-12-23T19:55:14.677Z,10.2
2022-12-23T19:57:14.343Z,10.3
2022-12-23T19:59:14.035Z,10.1
2022-12-23T20:01:13.745Z,10.1
2022-12-23T20:03:13.399Z,10.2
2022-12-23T20:05:13.073Z,10.2
2022-12-23T20:07:12.732Z,10
2022-12-23T20:13:15.121Z,10.1
2022-12-23T20:15:30.390Z,10.2
2022-12-23T20:17:30.054Z,10.2
2022-12-23T20:19:29.696Z,10.1
2022-12-23T20:21:32.745Z,10.3
2022-12-23T20:23:32.411Z,10.3
2022-12-23T20:27:31.779Z,10.3
2022-12-23T20:29:31.470Z,10.3
2022-12-23T20:31:31.205Z,10.3
2022-12-23T20:33:30.840Z,10.3
2022-12-23T20:35:33.843Z,10.4
2022-12-23T20:37:33.543Z,10.2
2022-12-23T20:45:32.242Z,10.2
2022-12-23T20:47:31.869Z,10.3
2022-12-23T20:53:34.334Z,10.3
2022-12-23T20:55:33.977Z,10.5
2022-12-23T21:01:33.026Z,10.4
2022-12-23T21:03:36.093Z,10.3
2022-12-23T21:05:35.695Z,10.3
2022-12-23T21:08:36.875Z,10.3
2022-12-23T21:10:36.541Z,10.3
2022-12-23T21:12:36.190Z,10.2
2022-12-23T21:14:35.838Z,10.3
2022-12-23T21:16:39.055Z,10.3
2022-12-23T21:18:38.571Z,10.4
2022-12-23T21:20:38.237Z,10.4
2022-12-23T21:22:37.880Z,10.4
2022-12-23T21:24:37.549Z,10.4
2022-12-23T21:26:37.165Z,10.4
2022-12-23T21:28:36.864Z,10.3
2022-12-23T21:32:39.620Z,10.1
2022-12-23T21:34:39.240Z,10.1
2022-12-23T21:36:39.065Z,10.1
2022-12-23T21:38:38.573Z,10.2
2022-12-23T21:50:40.484Z,10.1
2022-12-23T21:52:40.158Z,10
2022-12-23T21:54:39.814Z,10
2022-12-23T21:56:39.514Z,10.1
2022-12-23T22:00:42.351Z,10.1
2022-12-23T22:02:42.088Z,10.1
2022-12-23T22:03:43.426Z,10.1
2022-12-23T22:05:43.263Z,10.1
2022-12-23T22:07:42.821Z,10.1
2022-12-23T22:09:42.509Z,10.2
2022-12-23T22:11:45.590Z,10.2
2022-12-23T22:13:45.277Z,10.2
2022-12-23T22:15:44.943Z,10.2
2022-12-23T22:17:44.622Z,10.1
2022-12-23T22:19:44.271Z,10.2
2022-12-23T22:21:43.953Z,10.1
2022-12-23T22:27:46.383Z,10
2022-12-23T22:29:46.035Z,9.9
2022-12-23T22:31:45.991Z,9.9
2022-12-23T22:35:45.124Z,9.8
2022-12-23T22:37:44.828Z,9.8
2022-12-23T22:39:47.911Z,9.7
2022-12-23T22:41:47.587Z,9.7
2022-12-23T22:49:46.291Z,9.5
2022-12-23T22:51:45.957Z,9.5
2022-12-23T22:53:49.087Z,9.5
2022-12-23T22:55:48.748Z,9.5
2022-12-23T22:57:48.415Z,9.5
2022-12-23T22:58:50.000Z,9.5
2022-12-23T23:06:52.116Z,9.5
2022-12-23T23:08:51.781Z,9.4
2022-12-23T23:10:51.448Z,9.5
2022-12-23T23:12:51.112Z,9.4
2022-12-23T23:14:50.821Z,9.5
2022-12-23T23:16:50.559Z,9.5
2022-12-23T23:18:50.164Z,9.6
2022-12-23T23:20:53.246Z,9.6
2022-12-23T23:26:52.304Z,9.5
2022-12-23T23:28:51.983Z,9.5
2022-12-23T23:31:09.727Z,9.4
2022-12-23T23:32:51.348Z,9.4
2022-12-23T23:34:54.451Z,9.5
2022-12-23T23:36:54.085Z,9.5
2022-12-23T23:38:53.776Z,9.5
2022-12-23T23:40:53.450Z,9.5
2022-12-23T23:42:53.215Z,9.5
2022-12-23T23:46:52.487Z,9.4
2022-12-23T23:48:55.571Z,9.3
2022-12-23T23:50:55.215Z,9.4
2022-12-23T23:52:54.982Z,9.4
2022-12-23T23:55:16.872Z,9.5
2022-12-23T23:57:16.633Z,9.4
2022-12-23T23:59:16.243Z,9.4
